Pagrindinis puslapis
METAR-TAF:

METAR-TAF

Oro uostai :

Kokosų, Australija

platuma: 12-11S, ilguma: 096-49E, Aukštis: 3 m

Dabartinis oras

Ataskaita buvo paskelbta 25 minutes, ne 20:00 UTC
Vėjas 11 kt iš Rytų/Pietryčių
Temperatūra 25°C
Drėgmė 79%
Slėgis 1014 hPa
Išsisklaidę debesys ne aukštis 2300 ft
Išsisklaidę debesys ne aukštis 3400 ft
Su prošvaistėmis ne aukštis 4100 ft

METAR: YPCC 202000Z AUTO 11011KT //// // SCT023 SCT034 BKN041 25/21 Q1014

Laikas: 02:55 (20:25 UTC)

Prognozė

Ataskaita buvo paskelbta 3 valandos ir 25 minutes, ne 17:00 UTC
Prognozė galioja nuo 20 metu 18 UTC su 21 metu 18 UTC
Vėjas 15 kt iš Rytų/Pietryčių
Matomumas 10 km arba daugiau
Su prošvaistėmis ne aukštis 2000 ft
lietus

TAF: YPCC 201700Z 2018/2118 11015KT 9999 -SHRA BKN020

Orai ataskaitas ir orų prognozės (METAR, TAF).

turimą stotys yra geltonos ir raudonos taškus žemėlapyje.

Perkelti pele per norėdami pamatyti stoties vardą.

Tada spustelėkite, norėdami matyti oro stebėjimo ir prognozės.

Norėdami pakeisti žemėlapį: spustelėkite ant žalios mygtukų su juodo kryžiaus žemyn,; žalią mygtuką su brūkšneliu, jei norite nutolinti; arba žalių rodyklių gretimoms žemėlapius.


METAR-TAF: